^^
Grace C. Lehan Memorial Weather Station Historical Data
Daily Summary for April 6, 2021 Units:  Metric    English   Both
Daily Weekly Monthly Yearly
  High: Low: Average:
Temperature: 18.6 °C 8.8 °C 13.7 °C
Dew Point: 8.7 °C 2.1 °C 5.7 °C
Humidity: 88% 37% 61%
Wind Speed: 14.8km/h 0km/h 4.2km/h
Wind Gust: 41.8km/h - -
Wind- - NW
Pressure: 1013.1 hPa 1007 hPa -
Precipitation: 0 mm    
 
 
Tabular Data for April 6, 2021
Time Temperature Dew Point Pressure Wind Wind Speed Wind Gust Humidity Rainfall Rate (Hourly) solar
00:04 11.5 °C 8.7 °C 1007 hPa NW 3.2 km/h 3.2 km/h 83% 0 mm 0 W/m2
00:09 11.5 °C 8.7 °C 1007.3 hPa NW 3.7 km/h 19.3 km/h 83% 0 mm 0 W/m2
00:14 11.4 °C 8.6 °C 1007.3 hPa NNW 1.6 km/h 19.3 km/h 82.5% 0 mm 0 W/m2
00:19 11.3 °C 8.4 °C 1007.3 hPa NNW 2.6 km/h 19.3 km/h 82% 0 mm 0 W/m2
00:24 11.3 °C 8.4 °C 1007.3 hPa NW 1 km/h 19.3 km/h 82% 0 mm 0 W/m2
00:29 11.3 °C 8.3 °C 1007.3 hPa Calm   19.3 km/h 82.2% 0 mm 0 W/m2
00:34 11.3 °C 8.4 °C 1007.3 hPa NW 1.6 km/h 19.3 km/h 82.3% 0 mm 0 W/m2
00:39 11.2 °C 8.3 °C 1007.3 hPa NW 1.3 km/h 11.3 km/h 82.4% 0 mm 0 W/m2
00:44 11.2 °C 8.4 °C 1007.3 hPa NW 4.3 km/h 17.7 km/h 83% 0 mm 0 W/m2
00:49 11.2 °C 8.4 °C 1007.3 hPa NW 4.2 km/h 17.7 km/h 83% 0 mm 0 W/m2
00:54 11.2 °C 8.4 °C 1007.3 hPa NW 4 km/h 17.7 km/h 83% 0 mm 0 W/m2
00:59 11.2 °C 8.3 °C 1007.3 hPa NW 5.3 km/h 25.7 km/h 82.7% 0 mm 0 W/m2
01:04 11.1 °C 8.1 °C 1007.3 hPa NW 7.4 km/h 25.7 km/h 82% 0 mm 0 W/m2
01:09 11.1 °C 8.1 °C 1007.3 hPa WNW 3.1 km/h 24.1 km/h 82% 0 mm 0 W/m2
01:14 11.1 °C 8.2 °C 1007.3 hPa WNW 1.3 km/h 24.1 km/h 82.9% 0 mm 0 W/m2
01:18 11 °C 8.2 °C 1007.3 hPa NNW 2.6 km/h 24.1 km/h 82.9% 0 mm 0 W/m2
01:24 10.9 °C 8.2 °C 1007.7 hPa NW 2.1 km/h 24.1 km/h 83% 0 mm 0 W/m2
01:29 10.8 °C 8.1 °C 1007.7 hPa NNW 2.3 km/h 24.1 km/h 83% 0 mm 0 W/m2
01:33 10.8 °C 8.1 °C 1007.7 hPa NW 7.2 km/h 24.1 km/h 83% 0 mm 0 W/m2
01:39 10.8 °C 8.1 °C 1007.7 hPa NW 1.3 km/h 17.7 km/h 83% 0 mm 0 W/m2
01:44 10.8 °C 8.1 °C 1007.3 hPa NW 5 km/h 17.7 km/h 83% 0 mm 0 W/m2
01:49 10.8 °C 8.1 °C 1007.3 hPa NW 2.3 km/h 17.7 km/h 83% 0 mm 0 W/m2
01:54 10.8 °C 8.1 °C 1007.3 hPa NW 4 km/h 17.7 km/h 83% 0 mm 0 W/m2
01:59 10.8 °C 8.1 °C 1007.7 hPa NW 2.9 km/h 17.7 km/h 83% 0 mm 0 W/m2
02:04 10.8 °C 8 °C 1007.7 hPa NW 1.9 km/h 17.7 km/h 83% 0 mm 0 W/m2
02:09 10.8 °C 8 °C 1007.7 hPa NW 4.8 km/h 17.7 km/h 83% 0 mm 0 W/m2
02:14 10.8 °C 8 °C 1007.7 hPa NW 4.3 km/h 17.7 km/h 83% 0 mm 0 W/m2
02:19 10.8 °C 8 °C 1007.7 hPa NW 0.5 km/h 17.7 km/h 83% 0 mm 0 W/m2
02:24 10.7 °C 7.9 °C 1007.7 hPa NW 2.9 km/h 17.7 km/h 83% 0 mm 0 W/m2
02:29 10.7 °C 7.9 °C 1007.7 hPa NW 2.6 km/h 17.7 km/h 83% 0 mm 0 W/m2
02:34 10.6 °C 7.9 °C 1007.7 hPa NNW 0.6 km/h 17.7 km/h 83% 0 mm 0 W/m2
02:39 10.6 °C 7.8 °C 1007.7 hPa NNW 0.2 km/h 6.4 km/h 83% 0 mm 0 W/m2
02:44 10.5 °C 7.7 °C 1007.7 hPa NNW 2.9 km/h 11.3 km/h 83% 0 mm 0 W/m2
02:49 10.5 °C 7.7 °C 1007.7 hPa NW 3.1 km/h 17.7 km/h 83% 0 mm 0 W/m2
02:54 10.5 °C 7.8 °C 1008 hPa NW 3.5 km/h 17.7 km/h 83% 0 mm 0 W/m2
02:59 10.6 °C 7.8 °C 1008 hPa NNW 0.6 km/h 17.7 km/h 83% 0 mm 0 W/m2
03:04 10.6 °C 7.8 °C 1008 hPa NW 0.8 km/h 17.7 km/h 83% 0 mm 0 W/m2
03:09 10.6 °C 7.8 °C 1008 hPa WNW 4.7 km/h 16.1 km/h 83% 0 mm 0 W/m2
03:14 10.5 °C 7.7 °C 1008 hPa WNW 3.2 km/h 16.1 km/h 83% 0 mm 0 W/m2
03:19 10.4 °C 7.7 °C 1008 hPa WNW 2.7 km/h 16.1 km/h 83% 0 mm 0 W/m2
03:24 10.3 °C 7.6 °C 1008 hPa WNW 3.1 km/h 16.1 km/h 83% 0 mm 0 W/m2
03:29 10.3 °C 7.5 °C 1008 hPa NW 5.3 km/h 17.7 km/h 83% 0 mm 0 W/m2
03:34 10.3 °C 7.5 °C 1008 hPa NW 3.2 km/h 17.7 km/h 83% 0 mm 0 W/m2
03:39 10.2 °C 7.4 °C 1008 hPa WNW 4.3 km/h 20.9 km/h 83% 0 mm 0 W/m2
03:43 10.2 °C 7.4 °C 1008 hPa WNW 2.9 km/h 20.9 km/h 83% 0 mm 0 W/m2
03:49 10.2 °C 7.4 °C 1008 hPa WNW 3.1 km/h 20.9 km/h 83% 0 mm 0 W/m2
03:54 10.2 °C 7.4 °C 1008 hPa NW 1.8 km/h 20.9 km/h 83% 0 mm 0 W/m2
03:58 10.2 °C 7.4 °C 1008 hPa Calm   20.9 km/h 83% 0 mm 0 W/m2
04:09 10.1 °C 7.3 °C 1008.4 hPa WNW 1 km/h 8 km/h 83% 0 mm 0 W/m2
04:14 10 °C 7.4 °C 1008.4 hPa NW 2.3 km/h 14.5 km/h 83.9% 0 mm 0 W/m2
04:19 9.9 °C 7.4 °C 1008.4 hPa NNW 2.4 km/h 14.5 km/h 84% 0 mm 0 W/m2
04:24 9.9 °C 7.4 °C 1008 hPa NW 0.6 km/h 14.5 km/h 84% 0 mm 0 W/m2
04:29 9.9 °C 7.4 °C 1008 hPa NW 0.2 km/h 14.5 km/h 84% 0 mm 0 W/m2
04:34 9.9 °C 7.3 °C 1008 hPa NW 0.2 km/h 14.5 km/h 84% 0 mm 0 W/m2
04:39 9.8 °C 7.3 °C 1008.4 hPa NW 0.6 km/h 8 km/h 84% 0 mm 0 W/m2
04:44 9.8 °C 7.2 °C 1008.4 hPa Calm   8 km/h 84% 0 mm 0 W/m2
04:49 9.7 °C 7.2 °C 1008.4 hPa Calm   8 km/h 84% 0 mm 0 W/m2
04:54 9.7 °C 7.1 °C 1008.4 hPa Calm   8 km/h 84% 0 mm 0 W/m2
04:59 9.6 °C 7.1 °C 1008.7 hPa Calm   8 km/h 84% 0 mm 0 W/m2
05:04 9.6 °C 7 °C 1008.7 hPa Calm   8 km/h 84% 0 mm 0 W/m2
05:09 9.4 °C 7 °C 1008.7 hPa Calm     84.6% 0 mm 0 W/m2
05:13 9.4 °C 7.1 °C 1008.7 hPa Calm     85% 0 mm 0 W/m2
05:19 9.4 °C 7.1 °C 1008.7 hPa Calm     85.4% 0 mm 0 W/m2
05:24 9.4 °C 7.2 °C 1008.7 hPa Calm     86% 0 mm 0 W/m2
05:29 9.3 °C 7.1 °C 1008.7 hPa Calm     86% 0 mm 0 W/m2
05:34 9.3 °C 7.1 °C 1008.7 hPa Calm     86% 0 mm 0 W/m2
05:39 9.2 °C 6.9 °C 1008.7 hPa Calm     86% 0 mm 0 W/m2
05:44 9.1 °C 6.9 °C 1009 hPa NW 0.5 km/h 6.4 km/h 86% 0 mm 5 W/m2
05:48 9.1 °C 6.8 °C 1009 hPa Calm   6.4 km/h 86% 0 mm 7 W/m2
05:54 9 °C 6.9 °C 1009 hPa Calm   6.4 km/h 86.7% 0 mm 11 W/m2
05:59 8.9 °C 6.8 °C 1009.4 hPa NW 0.3 km/h 6.4 km/h 86.7% 0 mm 14 W/m2
06:04 8.9 °C 6.8 °C 1009.4 hPa NW 0.5 km/h 6.4 km/h 87% 0 mm 18 W/m2
06:09 8.8 °C 6.8 °C 1009.4 hPa WNW 1.3 km/h 6.4 km/h 87% 0 mm 21 W/m2
06:14 8.8 °C 6.8 °C 1009.4 hPa West 0.6 km/h 6.4 km/h 87% 0 mm 28 W/m2
06:19 8.8 °C 6.8 °C 1009.4 hPa Calm   6.4 km/h 87% 0 mm 39 W/m2
06:24 8.8 °C 6.9 °C 1009.7 hPa Calm   6.4 km/h 87.7% 0 mm 51 W/m2
06:29 8.9 °C 7 °C 1009.7 hPa Calm   6.4 km/h 88% 0 mm 65 W/m2
06:34 8.9 °C 7.1 °C 1009.7 hPa Calm   6.4 km/h 88% 0 mm 116 W/m2
06:39 9.1 °C 7.2 °C 1010 hPa Calm     88% 0 mm 151 W/m2
06:44 9.4 °C 7.6 °C 1010 hPa West 1.3 km/h 8 km/h 88% 0 mm 197 W/m2
06:49 9.9 °C 7.9 °C 1010 hPa WNW 0.8 km/h 8 km/h 87.4% 0 mm 213 W/m2
06:54 10.4 °C 8 °C 1010 hPa WNW 4.7 km/h 12.9 km/h 84.8% 0 mm 213 W/m2
06:59 10.7 °C 7.8 °C 1010 hPa WNW 5.6 km/h 17.7 km/h 81.9% 0 mm 279 W/m2
07:04 10.9 °C 7.7 °C 1010 hPa WNW 5.6 km/h 17.7 km/h 80.9% 0 mm 279 W/m2
07:14 11.3 °C 7.7 °C 1010.4 hPa WNW 4.2 km/h 17.7 km/h 78.4% 0 mm 281 W/m2
07:19 11.3 °C 7.6 °C 1010.4 hPa WNW 1.6 km/h 17.7 km/h 77.9% 0 mm 325 W/m2
07:24 11.3 °C 7.6 °C 1010.7 hPa NW 3.1 km/h 19.3 km/h 77.9% 0 mm 325 W/m2
07:29 11.3 °C 7.3 °C 1010.7 hPa NW 1.4 km/h 19.3 km/h 76.4% 0 mm 123 W/m2
07:34 11.4 °C 7.4 °C 1010.7 hPa WNW 3.7 km/h 19.3 km/h 76.5% 0 mm 366 W/m2
07:39 11.5 °C 7.3 °C 1011.1 hPa WNW 6.4 km/h 16.1 km/h 75.3% 0 mm 67 W/m2
07:44 11.4 °C 7.1 °C 1011.1 hPa WNW 4.2 km/h 20.9 km/h 74.3% 0 mm 83 W/m2
07:49 11.3 °C 6.8 °C 1011.4 hPa WNW 4.2 km/h 20.9 km/h 73.8% 0 mm 125 W/m2
07:53 11.2 °C 6.6 °C 1011.1 hPa WNW 9.5 km/h 20.9 km/h 73.2% 0 mm 195 W/m2
08:08 11.5 °C 6.6 °C 1011.4 hPa NW 4.7 km/h 12.9 km/h 72% 0 mm 220 W/m2
08:14 11.7 °C 7 °C 1011.4 hPa NW 2.9 km/h 16.1 km/h 72.8% 0 mm 548 W/m2
08:19 12.2 °C 7.1 °C 1011.4 hPa WNW 7.9 km/h 22.5 km/h 71% 0 mm 582 W/m2
08:24 12.6 °C 6.9 °C 1011.7 hPa WNW 7.2 km/h 22.5 km/h 68.6% 0 mm 680 W/m2
08:29 13 °C 7.1 °C 1011.7 hPa WNW 10.1 km/h 22.5 km/h 67.4% 0 mm 633 W/m2
08:34 13.1 °C 7.1 °C 1011.7 hPa WNW 6.6 km/h 22.5 km/h 66.8% 0 mm 677 W/m2
08:39 13.3 °C 7.5 °C 1011.7 hPa WNW 3.4 km/h 22.5 km/h 67.8% 0 mm 710 W/m2
08:43 13.7 °C 7.6 °C 1011.7 hPa WNW 3.7 km/h 22.5 km/h 66.8% 0 mm 710 W/m2
08:49 13.9 °C 7.4 °C 1011.7 hPa WNW 6.9 km/h 22.5 km/h 64.9% 0 mm 691 W/m2
08:54 14 °C 7.4 °C 1011.7 hPa WNW 7.2 km/h 22.5 km/h 64.2% 0 mm 668 W/m2
08:59 14.2 °C 7.4 °C 1011.7 hPa WNW 5.1 km/h 22.5 km/h 63.7% 0 mm 643 W/m2
09:04 14.4 °C 7.8 °C 1011.7 hPa NW 8.7 km/h 22.5 km/h 64.2% 0 mm 649 W/m2
09:09 14.7 °C 6.7 °C 1011.7 hPa NW 14.3 km/h 38.6 km/h 58.8% 0 mm 664 W/m2
09:14 14.6 °C 6.6 °C 1011.7 hPa NW 11.3 km/h 38.6 km/h 58.4% 0 mm 684 W/m2
09:19 14.7 °C 6.6 °C 1012.1 hPa NW 14.2 km/h 38.6 km/h 58.3% 0 mm 726 W/m2
09:24 14.7 °C 6.4 °C 1011.7 hPa NW 13.2 km/h 41.8 km/h 57.7% 0 mm 740 W/m2
09:29 14.7 °C 6.5 °C 1011.7 hPa NNW 10 km/h 41.8 km/h 58% 0 mm 812 W/m2
09:34 14.8 °C 6.6 °C 1011.7 hPa NNW 11.9 km/h 41.8 km/h 57.7% 0 mm 860 W/m2
09:39 14.9 °C 6.8 °C 1011.7 hPa NW 8.7 km/h 40.2 km/h 58.1% 0 mm 860 W/m2
09:43 14.9 °C 6.3 °C 1011.7 hPa NNW 7.6 km/h 40.2 km/h 56.2% 0 mm 765 W/m2
09:49 15.2 °C 6.6 °C 1011.7 hPa NW 6.1 km/h 40.2 km/h 56.7% 0 mm 1005 W/m2
09:54 15.3 °C 6.2 °C 1011.7 hPa NNW 11.3 km/h 40.2 km/h 54.5% 0 mm 1005 W/m2
09:59 15.1 °C 5.9 °C 1011.7 hPa NW 5.5 km/h 40.2 km/h 54.1% 0 mm 330 W/m2
10:04 14.7 °C 5.5 °C 1012.1 hPa NNW 8.9 km/h 40.2 km/h 54.1% 0 mm 366 W/m2
10:09 14.4 °C 5.4 °C 1012.1 hPa NW 8.9 km/h 27.4 km/h 54.8% 0 mm 397 W/m2
10:14 14.2 °C 5.3 °C 1012.1 hPa NW 9.7 km/h 27.4 km/h 55% 0 mm 932 W/m2
10:19 14.4 °C 5.8 °C 1012.1 hPa NW 10 km/h 27.4 km/h 56.3% 0 mm 1027 W/m2
10:24 14.8 °C 5.7 °C 1011.7 hPa NW 8.4 km/h 27.4 km/h 54.5% 0 mm 1111 W/m2
10:29 14.9 °C 5.5 °C 1011.7 hPa NW 3.2 km/h 27.4 km/h 53.2% 0 mm 250 W/m2
10:34 14.8 °C 5.6 °C 1012.1 hPa NW 12.2 km/h 35.4 km/h 54% 0 mm 1021 W/m2
10:39 14.8 °C 4.8 °C 1011.7 hPa NW 14.5 km/h 35.4 km/h 51.2% 0 mm 1021 W/m2
10:44 14.8 °C 4.9 °C 1011.7 hPa NW 8.5 km/h 35.4 km/h 51.9% 0 mm 1021 W/m2
10:49 15.1 °C 5.9 °C 1011.7 hPa NW 8.5 km/h 35.4 km/h 54.4% 0 mm 1081 W/m2
10:53 15.5 °C 6.1 °C 1011.7 hPa NW 5.5 km/h 35.4 km/h 53.4% 0 mm 1090 W/m2
10:59 16.1 °C 6.3 °C 1011.7 hPa NW 8.4 km/h 35.4 km/h 52.1% 0 mm 1150 W/m2
11:04 16.2 °C 5.9 °C 1011.4 hPa NW 3.7 km/h 35.4 km/h 50.7% 0 mm 1276 W/m2
11:09 16.2 °C 6.4 °C 1011.4 hPa NW 4.8 km/h 17.7 km/h 52.3% 0 mm 1276 W/m2
11:14 16.3 °C 6.6 °C 1011.4 hPa NW 3.7 km/h 17.7 km/h 52.5% 0 mm 1116 W/m2
11:19 16.4 °C 6.1 °C 1011.4 hPa NW 4.8 km/h 20.9 km/h 50.1% 0 mm 1032 W/m2
11:24 16.6 °C 6.5 °C 1011.7 hPa NW 6.3 km/h 25.7 km/h 51.2% 0 mm 1016 W/m2
11:29 17 °C 7.3 °C 1011.4 hPa NW 4.8 km/h 25.7 km/h 52.9% 0 mm 972 W/m2
11:34 17.3 °C 6 °C 1011.4 hPa NW 6.4 km/h 30.6 km/h 47.3% 0 mm 993 W/m2
11:39 17.4 °C 6.1 °C 1011.4 hPa NW 8.4 km/h 30.6 km/h 47.3% 0 mm 974 W/m2
11:44 17.3 °C 6 °C 1011.4 hPa NW 9.3 km/h 30.6 km/h 47.3% 0 mm 988 W/m2
11:49 17.2 °C 6.4 °C 1011.7 hPa NW 6.9 km/h 30.6 km/h 49% 0 mm 988 W/m2
11:53 17.3 °C 6.1 °C 1011.7 hPa NW 7.6 km/h 30.6 km/h 47.6% 0 mm 991 W/m2
11:59 17.3 °C 5.4 °C 1011.7 hPa WNW 11.9 km/h 30.6 km/h 45.3% 0 mm 986 W/m2
12:00 17.2 °C 5.2 °C 1011.4 hPa WNW 9.7 km/h 30.6 km/h 45% 0 mm 984 W/m2
12:09 17.1 °C 5.4 °C 1011.7 hPa NW 8 km/h 27.4 km/h 46.1% 0 mm 995 W/m2
12:14 17.2 °C 5.1 °C 1011.4 hPa NW 14.2 km/h 35.4 km/h 44.8% 0 mm 995 W/m2
12:19 16.9 °C 4.6 °C 1011.4 hPa WNW 14.8 km/h 35.4 km/h 43.8% 0 mm 1000 W/m2
12:24 16.8 °C 5 °C 1011.4 hPa NW 10 km/h 35.4 km/h 45.4% 0 mm 1002 W/m2
12:29 16.9 °C 5.3 °C 1011.4 hPa North 5.6 km/h 35.4 km/h 46.3% 0 mm 1004 W/m2
12:34 17.2 °C 5.8 °C 1011.1 hPa NNW 6.3 km/h 35.4 km/h 47% 0 mm 1004 W/m2
12:39 17.3 °C 5.3 °C 1011.1 hPa NW 8 km/h 22.5 km/h 44.8% 0 mm 1013 W/m2
12:44 17.5 °C 4.9 °C 1011.1 hPa NW 8.7 km/h 25.7 km/h 43.3% 0 mm 1013 W/m2
12:49 17.6 °C 4.3 °C 1011.4 hPa NW 9 km/h 27.4 km/h 41.4% 0 mm 1011 W/m2
12:54 17.6 °C 4.9 °C 1011.4 hPa NW 7.1 km/h 27.4 km/h 43.2% 0 mm 1013 W/m2
12:59 17.7 °C 4.7 °C 1011.4 hPa NW 8.4 km/h 27.4 km/h 42.3% 0 mm 1009 W/m2
13:04 17.7 °C 5.2 °C 1011.4 hPa NW 4.5 km/h 27.4 km/h 43.7% 0 mm 1011 W/m2
13:09 17.8 °C 5.5 °C 1011.1 hPa North 6.3 km/h 19.3 km/h 44.5% 0 mm 1007 W/m2
13:14 17.9 °C 5.7 °C 1011.1 hPa NW 3.5 km/h 19.3 km/h 44.5% 0 mm 1007 W/m2
13:19 18.1 °C 5.4 °C 1011.1 hPa WNW 9.3 km/h 25.7 km/h 43.1% 0 mm 1005 W/m2
13:24 18.2 °C 5.1 °C 1010.7 hPa NW 10.9 km/h 25.7 km/h 42% 0 mm 1005 W/m2
13:29 18.1 °C 4.9 °C 1010.7 hPa NW 6.3 km/h 25.7 km/h 41.7% 0 mm 1004 W/m2
13:34 18.2 °C 5.1 °C 1010.7 hPa WNW 7.2 km/h 25.7 km/h 42.3% 0 mm 1002 W/m2
13:39 18.1 °C 4.8 °C 1010.7 hPa WNW 5.6 km/h 19.3 km/h 41.3% 0 mm 1000 W/m2
13:44 18.2 °C 4.7 °C 1010.7 hPa NW 5.1 km/h 19.3 km/h 41% 0 mm 993 W/m2
13:49 18.2 °C 5.2 °C 1010.7 hPa WNW 5.1 km/h 19.3 km/h 42.3% 0 mm 990 W/m2
13:54 18.3 °C 4.8 °C 1010.7 hPa WNW 9.7 km/h 24.1 km/h 41% 0 mm 988 W/m2
13:59 18.3 °C 4.2 °C 1010.7 hPa WNW 6.4 km/h 24.1 km/h 39.3% 0 mm 981 W/m2
14:03 18.3 °C 4.7 °C 1010.7 hPa NW 6.8 km/h 24.1 km/h 40.5% 0 mm 976 W/m2
16:09 18.6 °C 3.6 °C 1010.4 hPa WNW 1.1 km/h 11.3 km/h 37% 0 mm 76 W/m2
16:14 18.5 °C 3.9 °C 1010.4 hPa WNW 6.8 km/h 19.3 km/h 37.8% 0 mm 74 W/m2
16:19 18.5 °C 4.2 °C 1010.4 hPa WNW 2.1 km/h 19.3 km/h 38.8% 0 mm 67 W/m2
16:24 18.5 °C 4.6 °C 1010.7 hPa WNW 4.8 km/h 20.9 km/h 39.9% 0 mm 67 W/m2
16:29 18.6 °C 4.5 °C 1010.7 hPa NW 3.2 km/h 20.9 km/h 39.4% 0 mm 70 W/m2
16:34 18.5 °C 3.9 °C 1010.7 hPa WNW 6.8 km/h 20.9 km/h 37.8% 0 mm 86 W/m2
16:39 18.4 °C 3.9 °C 1010.7 hPa WNW 2.9 km/h 17.7 km/h 38.2% 0 mm 93 W/m2
16:44 18.3 °C 3.4 °C 1010.7 hPa NW 4.3 km/h 17.7 km/h 37.2% 0 mm 88 W/m2
16:49 18.3 °C 3.9 °C 1010.4 hPa WNW 3.5 km/h 17.7 km/h 38.6% 0 mm 72 W/m2
16:54 18.3 °C 3.9 °C 1010.4 hPa NW 2.4 km/h 17.7 km/h 38.7% 0 mm 72 W/m2
16:59 18.2 °C 3.7 °C 1010.4 hPa WNW 5.6 km/h 17.7 km/h 38.2% 0 mm 72 W/m2
17:04 18.1 °C 3.7 °C 1010.4 hPa WNW 11.1 km/h 24.1 km/h 38.4% 0 mm 67 W/m2
17:09 18.1 °C 3.9 °C 1010.4 hPa West 4.7 km/h 24.1 km/h 38.9% 0 mm 56 W/m2
17:14 18.1 °C 3.9 °C 1010.7 hPa WSW 2.7 km/h 24.1 km/h 39.1% 0 mm 51 W/m2
17:19 18.1 °C 3.9 °C 1010.7 hPa WNW 4.8 km/h 24.1 km/h 39% 0 mm 53 W/m2
17:24 18.1 °C 3.7 °C 1010.7 hPa WNW 6.1 km/h 24.1 km/h 38.6% 0 mm 60 W/m2
17:29 17.9 °C 3.7 °C 1010.7 hPa West 4.7 km/h 24.1 km/h 38.8% 0 mm 65 W/m2
17:34 17.9 °C 3.8 °C 1010.7 hPa WNW 7.2 km/h 27.4 km/h 39.1% 0 mm 70 W/m2
17:39 17.7 °C 3.3 °C 1010.7 hPa WNW 5.1 km/h 27.4 km/h 38.1% 0 mm 72 W/m2
17:44 17.6 °C 3.3 °C 1010.7 hPa West 2.7 km/h 27.4 km/h 38.7% 0 mm 70 W/m2
17:49 17.5 °C 3.8 °C 1010.7 hPa WNW 5 km/h 27.4 km/h 40.1% 0 mm 70 W/m2
17:54 17.4 °C 3.4 °C 1010.7 hPa WNW 7.1 km/h 27.4 km/h 39.5% 0 mm 83 W/m2
17:59 17.3 °C 3.2 °C 1011.1 hPa WNW 8.9 km/h 27.4 km/h 39.1% 0 mm 86 W/m2
18:04 17.1 °C 2.8 °C 1011.1 hPa WNW 7.7 km/h 27.4 km/h 38.2% 0 mm 84 W/m2
18:09 17 °C 3.1 °C 1011.1 hPa WNW 5 km/h 20.9 km/h 39.2% 0 mm 84 W/m2
18:14 16.9 °C 3.1 °C 1011.1 hPa WNW 4.7 km/h 20.9 km/h 39.5% 0 mm 84 W/m2
18:19 16.8 °C 3.3 °C 1011.1 hPa NW 2.6 km/h 20.9 km/h 40.4% 0 mm 81 W/m2
18:24 16.8 °C 3.4 °C 1011.1 hPa WNW 3.2 km/h 20.9 km/h 40.8% 0 mm 79 W/m2
18:29 16.7 °C 2.8 °C 1011.1 hPa West 4.2 km/h 20.9 km/h 39.5% 0 mm 79 W/m2
18:34 16.5 °C 3.1 °C 1011.1 hPa WNW 3.4 km/h 20.9 km/h 40.5% 0 mm 76 W/m2
18:39 16.4 °C 2.8 °C 1011.1 hPa WNW 3.2 km/h 16.1 km/h 40.2% 0 mm 70 W/m2
18:44 16.3 °C 2.9 °C 1011.1 hPa WNW 5.3 km/h 16.1 km/h 40.8% 0 mm 65 W/m2
18:49 16.2 °C 2.8 °C 1011.1 hPa WNW 6.6 km/h 19.3 km/h 40.8% 0 mm 63 W/m2
18:54 16.1 °C 2.7 °C 1011.4 hPa WNW 5.8 km/h 19.3 km/h 40.6% 0 mm 56 W/m2
18:59 15.9 °C 2.6 °C 1011.4 hPa WNW 3.7 km/h 19.3 km/h 40.7% 0 mm 49 W/m2
19:04 15.8 °C 2.6 °C 1011.4 hPa WNW 4.8 km/h 20.9 km/h 41% 0 mm 42 W/m2
19:09 15.7 °C 2.4 °C 1011.4 hPa NW 2.9 km/h 20.9 km/h 40.8% 0 mm 37 W/m2
19:14 15.7 °C 2.5 °C 1011.7 hPa WNW 3.7 km/h 20.9 km/h 41.2% 0 mm 33 W/m2
19:19 15.6 °C 2.5 °C 1011.7 hPa West 2.1 km/h 20.9 km/h 41.4% 0 mm 28 W/m2
19:24 15.4 °C 2.4 °C 1011.7 hPa WNW 4.7 km/h 20.9 km/h 41.3% 0 mm 23 W/m2
19:29 15.4 °C 2.4 °C 1011.7 hPa WNW 3.7 km/h 20.9 km/h 41.6% 0 mm 19 W/m2
19:34 15.3 °C 2.4 °C 1011.7 hPa West 2.9 km/h 20.9 km/h 41.9% 0 mm 16 W/m2
19:39 15.3 °C 2.4 °C 1011.7 hPa West 2.6 km/h 14.5 km/h 42% 0 mm 12 W/m2
19:44 15.2 °C 2.3 °C 1011.7 hPa WNW 1.3 km/h 14.5 km/h 42% 0 mm 7 W/m2
19:49 15.1 °C 2.5 °C 1011.7 hPa WNW 0.6 km/h 14.5 km/h 42.7% 0 mm 5 W/m2
19:54 15 °C 2.5 °C 1011.7 hPa WNW 1.9 km/h 14.5 km/h 43% 0 mm 0 W/m2
19:59 14.9 °C 2.5 °C 1011.7 hPa WNW 1.8 km/h 14.5 km/h 43.2% 0 mm 0 W/m2
20:04 14.7 °C 2.6 °C 1011.7 hPa WNW 1.3 km/h 8 km/h 44% 0 mm 0 W/m2
20:09 14.7 °C 2.6 °C 1011.7 hPa WNW 0.8 km/h 8 km/h 44.2% 0 mm 0 W/m2
20:13 14.6 °C 2.5 °C 1011.7 hPa WNW 1 km/h 8 km/h 44.1% 0 mm 0 W/m2
20:19 14.5 °C 2.6 °C 1011.7 hPa WNW 0.8 km/h 8 km/h 44.5% 0 mm 0 W/m2
20:23 14.4 °C 2.6 °C 1011.7 hPa WNW 0.3 km/h 8 km/h 45% 0 mm 0 W/m2
20:29 14.3 °C 2.6 °C 1011.7 hPa WNW 0.8 km/h 9.7 km/h 45% 0 mm 0 W/m2
20:34 14.3 °C 2.5 °C 1011.7 hPa WNW 0.2 km/h 9.7 km/h 45% 0 mm 0 W/m2
20:39 14.2 °C 2.5 °C 1012.1 hPa Calm   8 km/h 45.1% 0 mm 0 W/m2
20:44 14.2 °C 2.5 °C 1012.1 hPa Calm   8 km/h 45.3% 0 mm 0 W/m2
20:49 14.1 °C 2.6 °C 1012.1 hPa WNW 0.3 km/h 8 km/h 45.8% 0 mm 0 W/m2
20:54 14.1 °C 2.6 °C 1012.4 hPa WNW 0.3 km/h 8 km/h 46% 0 mm 0 W/m2
20:58 14 °C 2.6 °C 1012.4 hPa WNW 0.3 km/h 8 km/h 46.2% 0 mm 0 W/m2
21:03 13.9 °C 2.8 °C 1012.4 hPa WNW 0.2 km/h 8 km/h 47% 0 mm 0 W/m2
21:27 13.7 °C 2.6 °C 1012.8 hPa Calm   8 km/h 47% 0 mm 0 W/m2
23:09 12.7 °C 2.2 °C 1013.1 hPa NW 1.3 km/h 9.7 km/h 49% 0 mm 0 W/m2
23:14 12.7 °C 2.2 °C 1013.1 hPa NW 1.4 km/h 11.3 km/h 49% 0 mm 0 W/m2
23:19 12.7 °C 2.2 °C 1013.1 hPa WNW 1 km/h 11.3 km/h 48.9% 0 mm 0 W/m2
23:24 12.6 °C 2.2 °C 1013.1 hPa NW 2.1 km/h 11.3 km/h 48.9% 0 mm 0 W/m2
23:29 12.6 °C 2.2 °C 1013.1 hPa NW 1.4 km/h 11.3 km/h 49% 0 mm 0 W/m2
23:34 12.6 °C 2.1 °C 1013.1 hPa NW 3.4 km/h 16.1 km/h 48.6% 0 mm 0 W/m2
23:39 12.6 °C 2.1 °C 1013.1 hPa NW 0.6 km/h 16.1 km/h 49% 0 mm 0 W/m2
23:44 12.6 °C 2.1 °C 1013.1 hPa NW 0.2 km/h 16.1 km/h 49% 0 mm 0 W/m2
23:49 12.5 °C 2.1 °C 1013.1 hPa NW 1.1 km/h 16.1 km/h 49% 0 mm 0 W/m2
23:54 12.4 °C 2.1 °C 1013.1 hPa NW 0.5 km/h 16.1 km/h 49% 0 mm 0 W/m2
23:59 12.4 °C 2.1 °C 1012.8 hPa NW 0.6 km/h 16.1 km/h 49.1% 0 mm 0 W/m2
Hartford County Weather
Compliments of Weather Underground - 4 mb